Terminal Aerodrome Forecast
Issued by NWS

Home | Current Version | Previous Version | Text Only | Print | Product List | Glossary On
Versions: 1 2 3 4 5 6 7 8 9 10 11 12 13 14 15 16 17 18 19 20 21 22 23 24 25 26 27 28 29 30
000
FTUS44 KMOB 021700 AAA
TAFBFM
TAF AMD
KBFM 021708Z 0217/0312 14005KT P6SM VCSH SCT030 BKN050
      TEMPO 0217/0221 VRB15G25KT 4SM TSRA BKN030CB
     FM030000 15005KT P6SM VCTS SCT030CB BKN100
      TEMPO 0300/0304 5SM -TSRA BKN050CB=

USA.gov is the U.S. government's official web portal to all federal, state and local government web resources and services.